Bildad 1946 - 70 års jubileum i år!   Måndagen den 5 december 2016 (Sven)

Blekinge Flygklubb
Eringsbodavägen 16 B
372 92 Kallinge
Org.nr. 835600-0144

Det finns inget på Anslagstavlan.

Väder ESDF

METAR
ESDF 051620Z 27006KT 9999 FEW018 SCT170 05/03 Q1017

TAF
ESDF 051430Z 0515/0523 31008KT 9999 BKN017

Förgasaris
Svår is vid alla effekter

METAR | TAF | Nordic SWC | Väderstatistik

Inhämta alltid aktuellt väder hos LFV innan du flyger.

NOTAM för kommande 24h

+ = 0-3 dgr | - = >3 dgr gammal
Endast VFR. Kontrollera alltid hos LFV.